sensor_id;sensor_type;location;lat;lon;timestamp;pressure;altitude;pressure_sealevel;temperature;humidity
20860;BME280;10590;48.154;11.514;2023-03-04T00:03:27;96044.66;;;0.71;85.02
20860;BME280;10590;48.154;11.514;2023-03-04T00:08:30;96043.31;;;0.69;84.38
20860;BME280;10590;48.154;11.514;2023-03-04T00:13:31;96043.53;;;0.67;84.97
20860;BME280;10590;48.154;11.514;2023-03-04T00:18:33;96047.78;;;0.51;84.89
20860;BME280;10590;48.154;11.514;2023-03-04T00:23:36;96044.47;;;0.39;85.11
20860;BME280;10590;48.154;11.514;2023-03-04T00:28:37;96046.06;;;0.40;85.42
20860;BME280;10590;48.154;11.514;2023-03-04T00:33:39;96051.94;;;0.30;85.72
20860;BME280;10590;48.154;11.514;2023-03-04T00:38:44;96039.72;;;0.19;85.84
20860;BME280;10590;48.154;11.514;2023-03-04T00:43:45;96049.31;;;0.30;85.08
20860;BME280;10590;48.154;11.514;2023-03-04T00:48:47;96056.47;;;0.35;85.70
20860;BME280;10590;48.154;11.514;2023-03-04T00:53:49;96055.75;;;0.40;84.43
20860;BME280;10590;48.154;11.514;2023-03-04T00:58:52;96052.59;;;0.38;84.89
20860;BME280;10590;48.154;11.514;2023-03-04T01:03:53;96048.47;;;0.25;85.41
20860;BME280;10590;48.154;11.514;2023-03-04T01:08:56;96036.84;;;0.21;84.39
20860;BME280;10590;48.154;11.514;2023-03-04T01:13:58;96031.69;;;0.26;84.86
20860;BME280;10590;48.154;11.514;2023-03-04T01:19:00;96026.13;;;0.06;85.26
20860;BME280;10590;48.154;11.514;2023-03-04T01:24:03;96012.22;;;0.05;85.29
20860;BME280;10590;48.154;11.514;2023-03-04T01:29:05;96034.53;;;0.08;85.49
20860;BME280;10590;48.154;11.514;2023-03-04T01:34:07;96029.53;;;0.06;85.45
20860;BME280;10590;48.154;11.514;2023-03-04T01:39:10;96020.03;;;-0.12;86.65
20860;BME280;10590;48.154;11.514;2023-03-04T01:44:12;96011.38;;;-0.12;86.35
20860;BME280;10590;48.154;11.514;2023-03-04T01:49:14;96013.00;;;0.06;85.83
20860;BME280;10590;48.154;11.514;2023-03-04T01:54:18;96010.47;;;0.11;85.28
20860;BME280;10590;48.154;11.514;2023-03-04T01:59:21;96004.47;;;-0.02;85.45
20860;BME280;10590;48.154;11.514;2023-03-04T02:04:26;95992.00;;;0.06;84.67
20860;BME280;10590;48.154;11.514;2023-03-04T02:09:31;95991.19;;;-0.12;86.33
20860;BME280;10590;48.154;11.514;2023-03-04T02:14:33;95985.16;;;-0.12;85.53
20860;BME280;10590;48.154;11.514;2023-03-04T02:19:41;95982.28;;;-0.11;85.71
20860;BME280;10590;48.154;11.514;2023-03-04T02:24:50;95987.63;;;-0.06;85.43
20860;BME280;10590;48.154;11.514;2023-03-04T02:29:55;95961.16;;;-0.21;85.00
20860;BME280;10590;48.154;11.514;2023-03-04T02:34:57;95970.06;;;-0.05;85.11
20860;BME280;10590;48.154;11.514;2023-03-04T02:39:58;95956.38;;;-0.24;85.39
20860;BME280;10590;48.154;11.514;2023-03-04T02:45:01;95980.47;;;-0.10;85.43
20860;BME280;10590;48.154;11.514;2023-03-04T02:50:03;95976.56;;;-0.08;85.08
20860;BME280;10590;48.154;11.514;2023-03-04T02:55:06;95984.44;;;-0.08;84.91
20860;BME280;10590;48.154;11.514;2023-03-04T03:00:11;95980.22;;;-0.09;85.74
20860;BME280;10590;48.154;11.514;2023-03-04T03:05:13;95972.34;;;-0.09;85.72
20860;BME280;10590;48.154;11.514;2023-03-04T03:10:14;95974.03;;;-0.19;85.59
20860;BME280;10590;48.154;11.514;2023-03-04T03:15:18;95962.25;;;-0.17;86.17
20860;BME280;10590;48.154;11.514;2023-03-04T03:20:19;95980.69;;;-0.12;85.49
20860;BME280;10590;48.154;11.514;2023-03-04T03:25:21;95981.97;;;-0.14;85.24
20860;BME280;10590;48.154;11.514;2023-03-04T03:30:24;95990.31;;;-0.17;85.43
20860;BME280;10590;48.154;11.514;2023-03-04T03:35:26;95983.63;;;-0.25;85.71
20860;BME280;10590;48.154;11.514;2023-03-04T03:40:27;95982.91;;;-0.37;85.58
20860;BME280;10590;48.154;11.514;2023-03-04T03:45:30;95978.78;;;-0.33;85.56
20860;BME280;10590;48.154;11.514;2023-03-04T03:50:32;95976.88;;;-0.21;85.23
20860;BME280;10590;48.154;11.514;2023-03-04T03:55:34;95976.16;;;-0.50;86.28
20860;BME280;10590;48.154;11.514;2023-03-04T04:00:37;95977.97;;;-0.50;85.58
20860;BME280;10590;48.154;11.514;2023-03-04T04:05:38;95973.91;;;-0.58;86.71
20860;BME280;10590;48.154;11.514;2023-03-04T04:10:40;95967.97;;;-0.53;86.33
20860;BME280;10590;48.154;11.514;2023-03-04T04:15:43;95968.75;;;-0.53;85.26
20860;BME280;10590;48.154;11.514;2023-03-04T04:20:45;95959.41;;;-0.49;84.78
20860;BME280;10590;48.154;11.514;2023-03-04T04:25:47;95977.75;;;-0.49;85.65
20860;BME280;10590;48.154;11.514;2023-03-04T04:30:50;95977.41;;;-0.52;85.04
20860;BME280;10590;48.154;11.514;2023-03-04T04:35:52;95977.81;;;-0.44;84.56
20860;BME280;10590;48.154;11.514;2023-03-04T04:40:55;95970.59;;;-0.53;85.32
20860;BME280;10590;48.154;11.514;2023-03-04T04:45:59;95981.78;;;-0.58;85.64
20860;BME280;10590;48.154;11.514;2023-03-04T04:51:01;95976.22;;;-0.61;84.98
20860;BME280;10590;48.154;11.514;2023-03-04T04:56:08;95978.09;;;-0.74;85.44
20860;BME280;10590;48.154;11.514;2023-03-04T05:01:11;95947.28;;;-0.83;84.89
20860;BME280;10590;48.154;11.514;2023-03-04T05:06:13;95977.47;;;-0.64;85.13
20860;BME280;10590;48.154;11.514;2023-03-04T05:11:16;95982.41;;;-0.68;85.30
20860;BME280;10590;48.154;11.514;2023-03-04T05:16:20;95955.38;;;-0.85;85.31
20860;BME280;10590;48.154;11.514;2023-03-04T05:21:21;95973.41;;;-0.72;85.51
20860;BME280;10590;48.154;11.514;2023-03-04T05:26:23;95975.47;;;-0.74;85.55
20860;BME280;10590;48.154;11.514;2023-03-04T05:31:26;95978.72;;;-0.83;86.23
20860;BME280;10590;48.154;11.514;2023-03-04T05:36:28;95983.25;;;-0.90;86.49
20860;BME280;10590;48.154;11.514;2023-03-04T05:41:29;95971.19;;;-0.80;85.86
20860;BME280;10590;48.154;11.514;2023-03-04T05:46:32;95979.91;;;-0.74;85.67
20860;BME280;10590;48.154;11.514;2023-03-04T05:51:34;95984.53;;;-0.65;85.59
20860;BME280;10590;48.154;11.514;2023-03-04T05:56:36;95988.25;;;-0.77;85.38
20860;BME280;10590;48.154;11.514;2023-03-04T06:01:38;95983.16;;;-0.84;85.60
20860;BME280;10590;48.154;11.514;2023-03-04T06:06:40;95997.09;;;-0.67;85.05
20860;BME280;10590;48.154;11.514;2023-03-04T06:11:42;95998.91;;;-0.67;84.93
20860;BME280;10590;48.154;11.514;2023-03-04T06:16:45;96000.19;;;-0.70;84.79
20860;BME280;10590;48.154;11.514;2023-03-04T06:21:46;96005.69;;;-0.54;84.65
20860;BME280;10590;48.154;11.514;2023-03-04T06:26:48;96013.59;;;-0.38;83.58
20860;BME280;10590;48.154;11.514;2023-03-04T06:31:51;96024.66;;;0.48;80.07
20860;BME280;10590;48.154;11.514;2023-03-04T06:36:52;96010.13;;;1.01;77.81
20860;BME280;10590;48.154;11.514;2023-03-04T06:41:54;96020.53;;;1.40;76.05
20860;BME280;10590;48.154;11.514;2023-03-04T06:46:57;96006.22;;;1.79;73.73
20860;BME280;10590;48.154;11.514;2023-03-04T06:51:58;96014.09;;;2.85;70.22
20860;BME280;10590;48.154;11.514;2023-03-04T06:57:00;96020.75;;;3.86;66.09
20860;BME280;10590;48.154;11.514;2023-03-04T07:02:03;96021.88;;;3.17;67.77
20860;BME280;10590;48.154;11.514;2023-03-04T07:07:05;96029.97;;;3.94;66.35
20860;BME280;10590;48.154;11.514;2023-03-04T07:12:06;96040.78;;;3.77;67.12
20860;BME280;10590;48.154;11.514;2023-03-04T07:17:09;96029.22;;;4.34;64.73
20860;BME280;10590;48.154;11.514;2023-03-04T07:22:11;96027.34;;;4.70;64.54
20860;BME280;10590;48.154;11.514;2023-03-04T07:27:12;96031.03;;;4.69;63.64
20860;BME280;10590;48.154;11.514;2023-03-04T07:32:15;96038.75;;;5.45;61.95
20860;BME280;10590;48.154;11.514;2023-03-04T07:37:17;96042.97;;;4.36;64.15
20860;BME280;10590;48.154;11.514;2023-03-04T07:42:19;96047.28;;;5.27;61.41
20860;BME280;10590;48.154;11.514;2023-03-04T07:47:21;96055.66;;;5.49;61.01
20860;BME280;10590;48.154;11.514;2023-03-04T07:52:23;96064.31;;;4.90;63.42
20860;BME280;10590;48.154;11.514;2023-03-04T07:57:25;96070.16;;;4.67;63.10
20860;BME280;10590;48.154;11.514;2023-03-04T08:02:27;96063.91;;;5.42;61.18
20860;BME280;10590;48.154;11.514;2023-03-04T08:07:29;96074.72;;;6.05;59.40
20860;BME280;10590;48.154;11.514;2023-03-04T08:12:31;96080.56;;;5.43;60.70
20860;BME280;10590;48.154;11.514;2023-03-04T08:17:34;96076.00;;;5.59;60.38
20860;BME280;10590;48.154;11.514;2023-03-04T08:22:36;96057.94;;;6.20;58.52
20860;BME280;10590;48.154;11.514;2023-03-04T08:27:37;96053.06;;;5.88;59.42
20860;BME280;10590;48.154;11.514;2023-03-04T08:32:40;96070.53;;;6.38;56.99
20860;BME280;10590;48.154;11.514;2023-03-04T08:37:42;96074.41;;;6.80;55.93
20860;BME280;10590;48.154;11.514;2023-03-04T08:42:45;96078.78;;;6.66;55.78
20860;BME280;10590;48.154;11.514;2023-03-04T08:47:49;96062.72;;;7.34;54.70
20860;BME280;10590;48.154;11.514;2023-03-04T08:52:51;96058.63;;;7.23;53.42
20860;BME280;10590;48.154;11.514;2023-03-04T08:57:53;96071.78;;;7.76;51.55
20860;BME280;10590;48.154;11.514;2023-03-04T09:02:56;96079.56;;;8.28;50.42
20860;BME280;10590;48.154;11.514;2023-03-04T09:07:57;96072.03;;;8.87;49.26
20860;BME280;10590;48.154;11.514;2023-03-04T09:12:59;96072.25;;;8.39;50.03
20860;BME280;10590;48.154;11.514;2023-03-04T09:18:03;96067.94;;;8.24;49.70
20860;BME280;10590;48.154;11.514;2023-03-04T09:23:05;96059.59;;;8.12;50.65
20860;BME280;10590;48.154;11.514;2023-03-04T09:28:09;96058.28;;;7.29;51.99
20860;BME280;10590;48.154;11.514;2023-03-04T09:33:13;96057.38;;;8.19;50.82
20860;BME280;10590;48.154;11.514;2023-03-04T09:38:14;96063.59;;;9.26;48.81
20860;BME280;10590;48.154;11.514;2023-03-04T09:43:18;96062.91;;;8.04;51.03
20860;BME280;10590;48.154;11.514;2023-03-04T09:48:24;96061.16;;;7.09;54.46
20860;BME280;10590;48.154;11.514;2023-03-04T09:53:34;96065.09;;;8.72;50.24
20860;BME280;10590;48.154;11.514;2023-03-04T09:58:56;96052.44;;;8.97;48.11
20860;BME280;10590;48.154;11.514;2023-03-04T10:04:07;96040.03;;;10.10;45.87
20860;BME280;10590;48.154;11.514;2023-03-04T10:09:16;96044.47;;;9.38;46.43
20860;BME280;10590;48.154;11.514;2023-03-04T10:14:32;96047.31;;;8.16;50.82
20860;BME280;10590;48.154;11.514;2023-03-04T10:19:47;96035.59;;;9.42;47.04
20860;BME280;10590;48.154;11.514;2023-03-04T10:30:20;96024.13;;;8.87;48.48
20860;BME280;10590;48.154;11.514;2023-03-04T10:35:40;96028.59;;;8.59;48.58
20860;BME280;10590;48.154;11.514;2023-03-04T10:40:44;96023.38;;;9.00;47.34
20860;BME280;10590;48.154;11.514;2023-03-04T10:45:45;96017.66;;;10.56;44.95
20860;BME280;10590;48.154;11.514;2023-03-04T10:50:49;96007.03;;;10.65;43.35
20860;BME280;10590;48.154;11.514;2023-03-04T10:55:51;96004.09;;;10.08;45.60
20860;BME280;10590;48.154;11.514;2023-03-04T11:00:59;96004.81;;;9.22;46.52
20860;BME280;10590;48.154;11.514;2023-03-04T11:06:10;95999.66;;;9.53;46.91
20860;BME280;10590;48.154;11.514;2023-03-04T11:11:24;95999.97;;;9.66;46.10
20860;BME280;10590;48.154;11.514;2023-03-04T11:16:29;96000.66;;;10.74;43.49
20860;BME280;10590;48.154;11.514;2023-03-04T11:21:36;95992.53;;;12.10;40.26
20860;BME280;10590;48.154;11.514;2023-03-04T11:26:42;95999.84;;;11.05;42.39
20860;BME280;10590;48.154;11.514;2023-03-04T11:31:49;95994.31;;;9.81;44.50
20860;BME280;10590;48.154;11.514;2023-03-04T11:36:58;96000.13;;;8.59;48.36
20860;BME280;10590;48.154;11.514;2023-03-04T11:42:06;95999.41;;;8.21;49.11
20860;BME280;10590;48.154;11.514;2023-03-04T11:47:29;95989.66;;;9.86;45.80
20860;BME280;10590;48.154;11.514;2023-03-04T11:52:57;95989.25;;;9.16;46.19
20860;BME280;10590;48.154;11.514;2023-03-04T11:58:28;95976.31;;;9.37;46.59
20860;BME280;10590;48.154;11.514;2023-03-04T12:09:08;95957.47;;;9.33;46.88
20860;BME280;10590;48.154;11.514;2023-03-04T12:14:24;95956.47;;;9.43;46.58
20860;BME280;10590;48.154;11.514;2023-03-04T12:19:36;95956.69;;;7.99;50.03
20860;BME280;10590;48.154;11.514;2023-03-04T12:24:57;95937.38;;;9.99;46.36
20860;BME280;10590;48.154;11.514;2023-03-04T12:30:13;95931.19;;;10.12;45.45
20860;BME280;10590;48.154;11.514;2023-03-04T12:35:32;95938.31;;;9.58;46.84
20860;BME280;10590;48.154;11.514;2023-03-04T12:40:42;95917.69;;;10.31;44.82
20860;BME280;10590;48.154;11.514;2023-03-04T12:45:57;95922.28;;;9.95;46.21
20860;BME280;10590;48.154;11.514;2023-03-04T12:51:21;95925.75;;;9.23;47.94
20860;BME280;10590;48.154;11.514;2023-03-04T12:56:36;95918.97;;;9.53;48.12
20860;BME280;10590;48.154;11.514;2023-03-04T13:01:41;95904.94;;;9.25;48.10
20860;BME280;10590;48.154;11.514;2023-03-04T13:06:48;95913.56;;;8.67;49.99
20860;BME280;10590;48.154;11.514;2023-03-04T13:12:13;95910.91;;;7.51;52.68
20860;BME280;10590;48.154;11.514;2023-03-04T13:17:38;95903.31;;;8.74;49.79
20860;BME280;10590;48.154;11.514;2023-03-04T13:22:50;95894.16;;;8.20;51.13
20860;BME280;10590;48.154;11.514;2023-03-04T13:28:20;95894.31;;;9.11;49.46
20860;BME280;10590;48.154;11.514;2023-03-04T13:33:48;95892.84;;;9.05;48.18
20860;BME280;10590;48.154;11.514;2023-03-04T13:38:57;95891.56;;;8.02;51.26
20860;BME280;10590;48.154;11.514;2023-03-04T13:44:01;95889.69;;;8.02;52.58
20860;BME280;10590;48.154;11.514;2023-03-04T13:49:04;95892.06;;;7.33;53.68
20860;BME280;10590;48.154;11.514;2023-03-04T13:54:12;95889.66;;;7.70;52.81
20860;BME280;10590;48.154;11.514;2023-03-04T13:59:26;95892.47;;;7.59;53.11
20860;BME280;10590;48.154;11.514;2023-03-04T14:04:31;95881.00;;;7.45;53.29
20860;BME280;10590;48.154;11.514;2023-03-04T14:09:34;95884.09;;;7.33;53.13
20860;BME280;10590;48.154;11.514;2023-03-04T14:14:43;95889.13;;;7.35;53.58
20860;BME280;10590;48.154;11.514;2023-03-04T14:19:48;95881.72;;;7.13;53.70
20860;BME280;10590;48.154;11.514;2023-03-04T14:24:58;95867.91;;;6.74;55.66
20860;BME280;10590;48.154;11.514;2023-03-04T14:30:05;95869.66;;;6.35;56.40
20860;BME280;10590;48.154;11.514;2023-03-04T14:35:18;95868.78;;;6.88;54.56
20860;BME280;10590;48.154;11.514;2023-03-04T14:40:23;95865.38;;;6.16;56.36
20860;BME280;10590;48.154;11.514;2023-03-04T14:45:28;95848.13;;;5.55;57.76
20860;BME280;10590;48.154;11.514;2023-03-04T14:50:30;95866.09;;;5.58;56.77
20860;BME280;10590;48.154;11.514;2023-03-04T14:55:32;95869.63;;;5.04;58.67
20860;BME280;10590;48.154;11.514;2023-03-04T15:00:36;95865.38;;;4.54;60.16
20860;BME280;10590;48.154;11.514;2023-03-04T15:05:38;95869.81;;;4.69;59.32
20860;BME280;10590;48.154;11.514;2023-03-04T15:10:40;95865.53;;;4.78;59.00
20860;BME280;10590;48.154;11.514;2023-03-04T15:15:44;95862.41;;;4.71;59.75
20860;BME280;10590;48.154;11.514;2023-03-04T15:20:52;95851.59;;;4.62;59.66
20860;BME280;10590;48.154;11.514;2023-03-04T15:25:55;95862.69;;;4.64;59.23
20860;BME280;10590;48.154;11.514;2023-03-04T15:30:59;95868.63;;;4.26;60.22
20860;BME280;10590;48.154;11.514;2023-03-04T15:36:34;95857.09;;;3.81;61.36
20860;BME280;10590;48.154;11.514;2023-03-04T15:41:49;95866.63;;;3.57;62.29
20860;BME280;10590;48.154;11.514;2023-03-04T15:46:52;95866.09;;;3.49;62.60
20860;BME280;10590;48.154;11.514;2023-03-04T15:51:54;95873.72;;;3.71;61.54
20860;BME280;10590;48.154;11.514;2023-03-04T15:56:56;95872.41;;;3.54;62.04
20860;BME280;10590;48.154;11.514;2023-03-04T16:02:00;95871.00;;;2.95;62.78
20860;BME280;10590;48.154;11.514;2023-03-04T16:07:02;95873.56;;;2.70;63.73
20860;BME280;10590;48.154;11.514;2023-03-04T16:12:04;95876.06;;;2.39;65.23
20860;BME280;10590;48.154;11.514;2023-03-04T16:17:08;95884.69;;;2.24;65.16
20860;BME280;10590;48.154;11.514;2023-03-04T16:22:12;95875.94;;;2.14;65.33
20860;BME280;10590;48.154;11.514;2023-03-04T16:27:15;95889.06;;;2.04;66.38
20860;BME280;10590;48.154;11.514;2023-03-04T16:32:19;95894.84;;;2.06;65.67
20860;BME280;10590;48.154;11.514;2023-03-04T16:37:21;95899.59;;;2.09;65.08
20860;BME280;10590;48.154;11.514;2023-03-04T16:42:23;95896.25;;;1.76;66.24
20860;BME280;10590;48.154;11.514;2023-03-04T16:47:27;95881.44;;;1.70;66.33
20860;BME280;10590;48.154;11.514;2023-03-04T16:52:30;95888.59;;;1.43;67.13
20860;BME280;10590;48.154;11.514;2023-03-04T16:57:32;95911.53;;;1.52;66.99
20860;BME280;10590;48.154;11.514;2023-03-04T17:02:35;95919.06;;;1.39;66.85
20860;BME280;10590;48.154;11.514;2023-03-04T17:07:37;95901.31;;;1.24;67.05
20860;BME280;10590;48.154;11.514;2023-03-04T17:12:38;95929.47;;;1.28;66.30
20860;BME280;10590;48.154;11.514;2023-03-04T17:17:42;95935.06;;;1.10;67.79
20860;BME280;10590;48.154;11.514;2023-03-04T17:22:44;95937.06;;;0.98;66.83
20860;BME280;10590;48.154;11.514;2023-03-04T17:27:46;95952.63;;;1.05;67.04
20860;BME280;10590;48.154;11.514;2023-03-04T17:32:49;95939.28;;;1.11;67.27
20860;BME280;10590;48.154;11.514;2023-03-04T17:37:51;95949.56;;;1.13;67.29
20860;BME280;10590;48.154;11.514;2023-03-04T17:42:52;95967.00;;;0.97;67.44
20860;BME280;10590;48.154;11.514;2023-03-04T17:47:55;95980.56;;;0.89;67.30
20860;BME280;10590;48.154;11.514;2023-03-04T17:52:57;95980.06;;;0.92;67.20
20860;BME280;10590;48.154;11.514;2023-03-04T17:57:59;95978.72;;;0.89;67.67
20860;BME280;10590;48.154;11.514;2023-03-04T18:03:02;95985.97;;;0.82;67.95
20860;BME280;10590;48.154;11.514;2023-03-04T18:08:04;95987.50;;;0.78;68.11
20860;BME280;10590;48.154;11.514;2023-03-04T18:13:05;95989.78;;;0.53;69.57
20860;BME280;10590;48.154;11.514;2023-03-04T18:18:09;95991.13;;;0.55;69.06
20860;BME280;10590;48.154;11.514;2023-03-04T18:23:10;95994.81;;;0.54;68.53
20860;BME280;10590;48.154;11.514;2023-03-04T18:28:12;96007.25;;;0.42;68.30
20860;BME280;10590;48.154;11.514;2023-03-04T18:33:15;95999.69;;;0.29;68.54
20860;BME280;10590;48.154;11.514;2023-03-04T18:38:16;96010.41;;;0.44;67.89
20860;BME280;10590;48.154;11.514;2023-03-04T18:43:18;96015.53;;;0.34;68.92
20860;BME280;10590;48.154;11.514;2023-03-04T18:48:21;96009.16;;;0.30;68.68
20860;BME280;10590;48.154;11.514;2023-03-04T18:53:24;96013.00;;;0.22;68.99
20860;BME280;10590;48.154;11.514;2023-03-04T18:58:27;96012.09;;;0.34;69.16
20860;BME280;10590;48.154;11.514;2023-03-04T19:03:31;96020.63;;;0.24;68.77
20860;BME280;10590;48.154;11.514;2023-03-04T19:08:33;96018.88;;;0.13;69.23
20860;BME280;10590;48.154;11.514;2023-03-04T19:13:35;96016.03;;;0.14;68.49
20860;BME280;10590;48.154;11.514;2023-03-04T19:18:38;96023.63;;;-0.01;69.18
20860;BME280;10590;48.154;11.514;2023-03-04T19:23:39;96034.00;;;0.06;67.92
20860;BME280;10590;48.154;11.514;2023-03-04T19:28:41;96031.59;;;0.21;68.47
20860;BME280;10590;48.154;11.514;2023-03-04T19:33:44;96029.34;;;-0.04;67.44
20860;BME280;10590;48.154;11.514;2023-03-04T19:38:46;96028.75;;;0.06;67.40
20860;BME280;10590;48.154;11.514;2023-03-04T19:43:47;96030.81;;;0.04;67.36
20860;BME280;10590;48.154;11.514;2023-03-04T19:48:50;96035.81;;;0.05;67.68
20860;BME280;10590;48.154;11.514;2023-03-04T19:53:52;96030.63;;;-0.07;67.37
20860;BME280;10590;48.154;11.514;2023-03-04T19:58:54;96026.88;;;-0.11;68.38
20860;BME280;10590;48.154;11.514;2023-03-04T20:03:58;96027.63;;;0.02;68.40
20860;BME280;10590;48.154;11.514;2023-03-04T20:09:00;96019.25;;;-0.12;67.42
20860;BME280;10590;48.154;11.514;2023-03-04T20:14:02;96031.66;;;-0.08;67.83
20860;BME280;10590;48.154;11.514;2023-03-04T20:19:06;96033.25;;;-0.07;68.14
20860;BME280;10590;48.154;11.514;2023-03-04T20:24:07;96029.34;;;-0.21;67.23
20860;BME280;10590;48.154;11.514;2023-03-04T20:29:09;96022.00;;;-0.36;67.53
20860;BME280;10590;48.154;11.514;2023-03-04T20:34:14;96017.00;;;-0.37;68.20
20860;BME280;10590;48.154;11.514;2023-03-04T20:39:15;96026.72;;;-0.04;67.22
20860;BME280;10590;48.154;11.514;2023-03-04T20:44:17;96022.50;;;-0.05;66.96
20860;BME280;10590;48.154;11.514;2023-03-04T20:49:22;96021.88;;;-0.12;66.96
20860;BME280;10590;48.154;11.514;2023-03-04T20:54:24;96012.81;;;-0.21;67.90
20860;BME280;10590;48.154;11.514;2023-03-04T20:59:25;96008.19;;;-0.14;67.45
20860;BME280;10590;48.154;11.514;2023-03-04T21:04:28;96007.88;;;-0.35;67.56
20860;BME280;10590;48.154;11.514;2023-03-04T21:09:30;96001.50;;;-0.39;67.71
20860;BME280;10590;48.154;11.514;2023-03-04T21:14:32;96000.88;;;-0.29;68.25
20860;BME280;10590;48.154;11.514;2023-03-04T21:19:36;95992.84;;;-0.39;67.90
20860;BME280;10590;48.154;11.514;2023-03-04T21:24:42;95990.72;;;-0.25;66.84
20860;BME280;10590;48.154;11.514;2023-03-04T21:29:44;95993.22;;;-0.47;66.78
20860;BME280;10590;48.154;11.514;2023-03-04T21:34:50;95977.41;;;-0.52;67.48
20860;BME280;10590;48.154;11.514;2023-03-04T21:39:52;95979.47;;;-0.54;67.01
20860;BME280;10590;48.154;11.514;2023-03-04T21:44:54;95973.81;;;-0.63;67.91
20860;BME280;10590;48.154;11.514;2023-03-04T21:49:56;95965.81;;;-0.56;67.21
20860;BME280;10590;48.154;11.514;2023-03-04T21:54:58;95965.25;;;-0.58;67.49
20860;BME280;10590;48.154;11.514;2023-03-04T21:59:59;95959.72;;;-0.45;68.07
20860;BME280;10590;48.154;11.514;2023-03-04T22:05:03;95941.84;;;-0.48;68.13
20860;BME280;10590;48.154;11.514;2023-03-04T22:10:05;95939.63;;;-0.56;68.50
20860;BME280;10590;48.154;11.514;2023-03-04T22:15:08;95938.66;;;-0.50;68.00
20860;BME280;10590;48.154;11.514;2023-03-04T22:20:12;95928.19;;;-0.34;67.97
20860;BME280;10590;48.154;11.514;2023-03-04T22:25:19;95929.84;;;-0.44;68.37
20860;BME280;10590;48.154;11.514;2023-03-04T22:30:21;95934.84;;;-0.59;68.46
20860;BME280;10590;48.154;11.514;2023-03-04T22:35:24;95933.91;;;-0.37;68.01
20860;BME280;10590;48.154;11.514;2023-03-04T22:40:25;95934.13;;;-0.38;69.02
20860;BME280;10590;48.154;11.514;2023-03-04T22:45:29;95929.38;;;-0.41;68.89
20860;BME280;10590;48.154;11.514;2023-03-04T22:50:33;95940.72;;;-0.69;69.60
20860;BME280;10590;48.154;11.514;2023-03-04T22:55:35;95930.16;;;-0.41;68.69
20860;BME280;10590;48.154;11.514;2023-03-04T23:00:37;95925.88;;;-0.30;69.69
20860;BME280;10590;48.154;11.514;2023-03-04T23:05:40;95933.91;;;-0.53;69.35
20860;BME280;10590;48.154;11.514;2023-03-04T23:10:42;95942.09;;;-0.33;69.58
20860;BME280;10590;48.154;11.514;2023-03-04T23:15:43;95933.97;;;-0.32;69.58
20860;BME280;10590;48.154;11.514;2023-03-04T23:20:46;95939.22;;;-0.32;69.83
20860;BME280;10590;48.154;11.514;2023-03-04T23:25:48;95933.19;;;-0.32;69.35
20860;BME280;10590;48.154;11.514;2023-03-04T23:30:51;95930.66;;;-0.44;70.00
20860;BME280;10590;48.154;11.514;2023-03-04T23:35:54;95923.97;;;-0.35;69.49
20860;BME280;10590;48.154;11.514;2023-03-04T23:40:55;95915.31;;;-0.35;69.99
20860;BME280;10590;48.154;11.514;2023-03-04T23:45:57;95920.63;;;-0.47;70.28
20860;BME280;10590;48.154;11.514;2023-03-04T23:51:00;95905.72;;;-0.46;70.64
20860;BME280;10590;48.154;11.514;2023-03-04T23:56:01;95913.72;;;-0.36;70.39
